createdAt,value
2018-05-27T00:02:09.412Z,47.63
2018-05-27T00:04:38.301Z,47.80
2018-05-27T00:07:07.666Z,47.97
2018-05-27T00:09:36.223Z,47.91
2018-05-27T00:12:06.488Z,48.00
2018-05-27T00:14:35.547Z,48.17
2018-05-27T00:17:05.238Z,48.19
2018-05-27T00:19:33.726Z,47.98
2018-05-27T00:22:03.840Z,48.02
2018-05-27T00:24:37.727Z,48.10
2018-05-27T00:27:06.272Z,47.86
2018-05-27T00:29:34.816Z,47.86
2018-05-27T00:32:04.675Z,47.78
2018-05-27T00:34:33.715Z,47.89
2018-05-27T00:37:04.427Z,48.14
2018-05-27T00:39:36.348Z,48.01
2018-05-27T00:42:06.158Z,48.15
2018-05-27T00:44:34.712Z,48.26
2018-05-27T00:47:04.144Z,48.36
2018-05-27T00:49:33.057Z,48.42
2018-05-27T00:52:03.624Z,48.36
2018-05-27T00:54:32.186Z,48.30
2018-05-27T00:57:05.362Z,48.60
2018-05-27T00:59:33.903Z,48.82
2018-05-27T01:02:05.343Z,48.99
2018-05-27T01:04:34.217Z,49.28
2018-05-27T01:07:08.252Z,49.55
2018-05-27T01:09:37.079Z,49.60
2018-05-27T01:12:05.617Z,49.60
2018-05-27T01:14:39.327Z,50.00
2018-05-27T01:17:10.056Z,50.26
2018-05-27T01:19:38.939Z,50.61
2018-05-27T01:22:07.770Z,50.74
2018-05-27T01:24:36.964Z,50.71
2018-05-27T01:27:13.725Z,50.77
2018-05-27T01:29:42.684Z,50.82
2018-05-27T01:32:13.399Z,50.89
2018-05-27T01:34:41.947Z,50.75
2018-05-27T01:37:10.541Z,50.85
2018-05-27T01:39:39.460Z,51.01
2018-05-27T01:42:08.046Z,51.02
2018-05-27T01:44:37.981Z,50.83
2018-05-27T01:47:06.903Z,50.76
2018-05-27T01:49:35.573Z,50.82
2018-05-27T01:52:05.227Z,50.82
2018-05-27T01:54:36.404Z,50.91
2018-05-27T01:57:05.322Z,51.07
2018-05-27T01:59:33.975Z,51.15
2018-05-27T02:02:04.951Z,51.24
2018-05-27T02:04:33.659Z,51.31
2018-05-27T02:07:02.989Z,51.46
2018-05-27T02:09:32.257Z,51.47
2018-05-27T02:12:02.094Z,51.50
2018-05-27T02:14:30.668Z,51.54
2018-05-27T02:19:34.863Z,51.77
2018-05-27T02:22:09.240Z,51.97
2018-05-27T02:24:38.406Z,52.17
2018-05-27T02:27:11.647Z,52.37
2018-05-27T02:29:40.219Z,52.44
2018-05-27T02:32:09.838Z,52.55
2018-05-27T02:34:38.474Z,52.69
2018-05-27T02:37:07.116Z,52.77
2018-05-27T02:39:36.097Z,53.00
2018-05-27T02:42:06.411Z,53.24
2018-05-27T02:44:34.970Z,53.46
2018-05-27T02:47:04.864Z,53.49
2018-05-27T02:49:33.375Z,53.58
2018-05-27T02:52:02.642Z,53.61
2018-05-27T02:54:32.530Z,53.76
2018-05-27T02:57:01.751Z,53.90
2018-05-27T02:59:30.690Z,54.07
2018-05-27T03:02:10.701Z,54.39
2018-05-27T03:04:39.439Z,54.74
2018-05-27T03:07:08.431Z,55.04
2018-05-27T03:09:37.048Z,55.26
2018-05-27T03:12:05.635Z,55.44
2018-05-27T03:14:34.559Z,55.70
2018-05-27T03:17:08.416Z,55.71
2018-05-27T03:19:37.019Z,55.73
2018-05-27T03:22:10.819Z,55.81
2018-05-27T03:24:39.375Z,55.97
2018-05-27T03:27:07.975Z,56.20
2018-05-27T03:29:36.871Z,56.32
2018-05-27T03:32:05.552Z,56.41
2018-05-27T03:34:34.175Z,56.40
2018-05-27T03:37:04.987Z,56.58
2018-05-27T03:39:33.527Z,56.79
2018-05-27T03:42:08.799Z,56.86
2018-05-27T03:44:37.802Z,57.01
2018-05-27T03:47:06.377Z,57.06
2018-05-27T03:49:35.003Z,57.16
2018-05-27T03:52:05.643Z,57.13
2018-05-27T03:54:34.822Z,57.20
2018-05-27T03:57:13.369Z,57.11
2018-05-27T03:59:42.720Z,57.04
2018-05-27T04:02:11.372Z,57.02
2018-05-27T04:09:04.528Z,57.02
2018-05-27T04:11:33.618Z,56.96
2018-05-27T04:14:02.856Z,57.09
2018-05-27T04:16:33.556Z,57.11
2018-05-27T04:19:02.632Z,57.17
2018-05-27T04:21:34.839Z,57.26
2018-05-27T04:24:06.396Z,57.18
2018-05-27T04:26:35.331Z,57.26
2018-05-27T04:29:03.975Z,57.47
2018-05-27T04:31:32.658Z,57.59
2018-05-27T04:34:03.555Z,57.79
2018-05-27T04:36:32.300Z,57.83
2018-05-27T04:39:01.264Z,58.02
2018-05-27T04:41:30.371Z,58.04
2018-05-27T04:43:58.913Z,58.22
2018-05-27T04:46:27.454Z,58.48
2018-05-27T04:48:56.524Z,58.61
2018-05-27T04:51:25.319Z,58.71
2018-05-27T04:53:53.982Z,58.81
2018-05-27T04:56:28.992Z,59.04
2018-05-27T04:58:57.743Z,59.11
2018-05-27T05:01:26.282Z,59.23
2018-05-27T05:04:10.861Z,59.28
2018-05-27T05:07:00.731Z,59.43
2018-05-27T05:09:34.430Z,59.33
2018-05-27T05:12:05.212Z,59.22
2018-05-27T05:14:33.907Z,58.99
2018-05-27T05:17:03.656Z,58.82
2018-05-27T05:19:32.237Z,58.61
2018-05-27T05:22:03.086Z,58.54
2018-05-27T05:24:31.967Z,58.52
2018-05-27T05:27:00.577Z,58.36
2018-05-27T05:29:29.121Z,58.37
2018-05-27T05:31:58.432Z,58.27
2018-05-27T05:34:27.027Z,58.19
2018-05-27T05:37:01.530Z,58.08
2018-05-27T05:39:30.082Z,58.17
2018-05-27T05:41:58.838Z,57.95
2018-05-27T05:44:30.024Z,57.77
2018-05-27T05:46:58.531Z,57.62
2018-05-27T05:49:27.067Z,57.54
2018-05-27T05:51:57.349Z,57.38
2018-05-27T05:54:25.924Z,57.01
2018-05-27T05:56:54.785Z,56.73
2018-05-27T05:59:23.737Z,56.62
2018-05-27T06:01:58.624Z,56.56
2018-05-27T06:04:27.226Z,56.61
2018-05-27T06:06:56.050Z,56.51
2018-05-27T06:09:25.352Z,56.39
2018-05-27T06:11:55.193Z,56.14
2018-05-27T06:14:23.978Z,55.97
2018-05-27T06:16:52.780Z,55.81
2018-05-27T06:19:26.676Z,55.73
2018-05-27T06:21:55.534Z,55.68
2018-05-27T06:24:24.043Z,55.74
2018-05-27T06:27:01.108Z,55.22
2018-05-27T06:29:29.601Z,54.89
2018-05-27T06:31:58.933Z,55.04
2018-05-27T06:34:27.451Z,54.89
2018-05-27T06:36:57.188Z,54.95
2018-05-27T06:39:26.089Z,54.92
2018-05-27T06:41:55.380Z,54.77
2018-05-27T06:44:24.113Z,54.71
2018-05-27T06:46:53.034Z,54.59
2018-05-27T06:49:21.744Z,54.34
2018-05-27T06:52:04.832Z,53.89
2018-05-27T06:54:33.676Z,53.42
2018-05-27T06:57:02.977Z,53.10
2018-05-27T06:59:31.539Z,52.69
2018-05-27T07:02:00.890Z,52.02
2018-05-27T07:04:29.741Z,51.78
2018-05-27T07:06:59.129Z,51.53
2018-05-27T07:09:59.668Z,51.39
2018-05-27T07:12:28.217Z,50.58
2018-05-27T07:15:01.931Z,50.44
2018-05-27T07:17:30.655Z,50.30
2018-05-27T07:19:59.587Z,50.25
2018-05-27T07:22:28.110Z,50.13
2018-05-27T07:27:32.705Z,50.02
2018-05-27T07:30:04.331Z,50.01
2018-05-27T07:32:32.876Z,49.85
2018-05-27T07:35:08.363Z,49.98
2018-05-27T07:37:37.280Z,49.67
2018-05-27T07:40:07.986Z,48.77
2018-05-27T07:42:36.636Z,48.51
2018-05-27T07:45:05.233Z,47.94
2018-05-27T07:47:34.205Z,48.02
2018-05-27T07:50:04.869Z,48.02
2018-05-27T07:52:33.492Z,47.73
2018-05-27T07:55:03.149Z,47.76
2018-05-27T07:57:31.680Z,47.90
2018-05-27T08:00:01.392Z,47.87
2018-05-27T08:02:30.371Z,47.62
2018-05-27T08:04:59.342Z,48.07
2018-05-27T08:07:32.741Z,48.66
2018-05-27T08:10:03.335Z,48.74
2018-05-27T08:12:32.388Z,48.89
2018-05-27T08:15:01.967Z,48.74
2018-05-27T08:17:30.556Z,48.60
2018-05-27T08:20:05.347Z,48.45
2018-05-27T08:22:34.246Z,48.23
2018-05-27T08:25:04.009Z,47.61
2018-05-27T08:27:33.570Z,46.76
2018-05-27T08:30:05.635Z,45.55
2018-05-27T08:32:39.890Z,45.28
2018-05-27T08:35:09.331Z,44.68
2018-05-27T08:37:43.343Z,43.92
2018-05-27T08:40:12.677Z,43.80
2018-05-27T08:42:43.598Z,43.41
2018-05-27T08:45:12.484Z,42.65
2018-05-27T08:50:14.941Z,42.42
2018-05-27T08:52:43.953Z,42.85
2018-05-27T08:55:14.238Z,42.45
2018-05-27T08:57:43.147Z,42.14
2018-05-27T09:00:12.379Z,41.41
2018-05-27T09:02:41.184Z,41.36
2018-05-27T09:05:09.880Z,41.81
2018-05-27T09:07:39.639Z,42.15
2018-05-27T09:10:12.736Z,42.30
2018-05-27T09:12:41.681Z,42.67
2018-05-27T09:15:16.156Z,42.26
2018-05-27T09:17:45.410Z,42.64
2018-05-27T09:20:14.765Z,42.62
2018-05-27T09:22:43.328Z,43.11
2018-05-27T09:25:12.247Z,43.18
2018-05-27T09:27:43.397Z,43.09
2018-05-27T09:30:12.039Z,44.01
2018-05-27T09:32:41.034Z,43.94
2018-05-27T09:35:09.739Z,43.76
2018-05-27T09:37:38.254Z,43.43
2018-05-27T09:40:07.847Z,42.76
2018-05-27T09:42:36.488Z,42.10
2018-05-27T09:45:07.313Z,41.60
2018-05-27T09:47:36.305Z,42.37
2018-05-27T09:50:06.033Z,42.78
2018-05-27T09:52:34.763Z,41.67
2018-05-27T09:55:04.810Z,42.06
2018-05-27T09:57:33.380Z,42.34
2018-05-27T10:00:05.242Z,41.90
2018-05-27T10:02:34.031Z,43.00
2018-05-27T10:05:04.867Z,44.00
2018-05-27T10:07:34.965Z,43.50
2018-05-27T10:10:06.019Z,43.10
2018-05-27T10:12:34.589Z,43.23
2018-05-27T10:15:03.413Z,42.64
2018-05-27T10:17:37.957Z,42.68
2018-05-27T10:20:07.620Z,42.52
2018-05-27T10:22:36.204Z,42.88
2018-05-27T10:25:05.470Z,42.43
2018-05-27T10:27:34.248Z,41.93
2018-05-27T10:30:05.772Z,41.79
2018-05-27T10:32:34.658Z,41.38
2018-05-27T10:35:04.046Z,41.24
2018-05-27T10:37:32.667Z,41.34
2018-05-27T10:40:03.228Z,42.01
2018-05-27T10:42:31.930Z,41.91
2018-05-27T10:45:01.553Z,41.97
2018-05-27T10:47:30.454Z,41.97
2018-05-27T10:50:06.707Z,41.20
2018-05-27T10:52:35.382Z,41.08
2018-05-27T10:55:05.129Z,40.94
2018-05-27T10:57:33.950Z,40.62
2018-05-27T11:00:04.444Z,40.62
2018-05-27T11:02:33.338Z,40.20
2018-05-27T11:05:02.146Z,40.71
2018-05-27T11:07:31.237Z,40.69
2018-05-27T11:09:59.923Z,40.18
2018-05-27T11:12:28.513Z,39.22
2018-05-27T11:14:57.615Z,39.30
2018-05-27T11:17:27.310Z,38.77
2018-05-27T11:20:00.075Z,37.84
2018-05-27T11:22:29.911Z,37.30
2018-05-27T11:24:58.472Z,35.81
2018-05-27T11:27:27.932Z,35.83
2018-05-27T11:29:58.109Z,35.54
2018-05-27T11:32:26.604Z,35.04
2018-05-27T11:34:55.310Z,35.39
2018-05-27T11:37:24.710Z,34.70
2018-05-27T11:39:53.245Z,33.24
2018-05-27T11:42:21.927Z,33.14
2018-05-27T11:44:50.852Z,33.38
2018-05-27T11:47:19.508Z,33.44
2018-05-27T11:49:48.079Z,33.40
2018-05-27T11:52:16.963Z,31.67
2018-05-27T11:54:45.747Z,31.87
2018-05-27T11:57:14.381Z,31.84
2018-05-27T11:59:43.532Z,31.98
2018-05-27T12:02:12.228Z,33.57
2018-05-27T12:04:41.526Z,32.10
2018-05-27T12:07:10.599Z,32.03
2018-05-27T12:09:39.364Z,31.90
2018-05-27T12:12:07.898Z,31.39
2018-05-27T12:14:37.513Z,32.28
2018-05-27T12:37:48.479Z,35.47
2018-05-27T12:40:20.267Z,35.96
2018-05-27T12:42:48.915Z,36.01
2018-05-27T12:45:17.548Z,36.36
2018-05-27T12:47:46.136Z,36.59
2018-05-27T12:50:14.773Z,36.87
2018-05-27T12:52:43.790Z,36.83
2018-05-27T12:55:21.354Z,36.82
2018-05-27T12:57:55.248Z,37.86
2018-05-27T13:00:24.500Z,38.48
2018-05-27T13:02:54.947Z,38.75
2018-05-27T13:05:23.565Z,38.55
2018-05-27T13:07:55.394Z,38.76
2018-05-27T13:10:24.044Z,39.00
2018-05-27T13:12:52.507Z,39.02
2018-05-27T13:15:23.759Z,39.09
2018-05-27T13:17:52.300Z,39.03
2018-05-27T13:20:21.458Z,39.06
2018-05-27T13:22:50.146Z,39.22
2018-05-27T13:25:18.805Z,40.26
2018-05-27T13:27:47.367Z,40.28
2018-05-27T13:30:16.263Z,40.95
2018-05-27T13:32:45.146Z,41.47
2018-05-27T13:35:13.678Z,39.98
2018-05-27T13:37:42.562Z,40.17
2018-05-27T13:40:12.443Z,40.22
2018-05-27T13:42:41.036Z,40.15
2018-05-27T13:45:09.801Z,39.88
2018-05-27T13:47:38.751Z,40.27
2018-05-27T13:50:07.297Z,40.36
2018-05-27T13:52:37.599Z,40.33
2018-05-27T13:55:06.176Z,40.16
2018-05-27T13:57:34.694Z,40.26
2018-05-27T14:00:05.651Z,40.16
2018-05-27T14:03:37.042Z,40.24
2018-05-27T14:06:06.782Z,40.34
2018-05-27T14:08:35.448Z,40.50
2018-05-27T14:11:09.725Z,40.50
2018-05-27T14:13:44.655Z,40.78
2018-05-27T14:16:13.451Z,41.05
2018-05-27T14:18:41.996Z,41.32
2018-05-27T14:21:10.503Z,41.73
2018-05-27T14:23:39.033Z,42.00
2018-05-27T14:26:07.883Z,42.66
2018-05-27T14:28:36.442Z,42.85
2018-05-27T14:31:05.466Z,43.60
2018-05-27T14:33:34.014Z,43.77
2018-05-27T14:36:03.691Z,44.03
2018-05-27T14:38:32.790Z,44.30
2018-05-27T14:41:05.522Z,44.37
2018-05-27T14:43:34.070Z,44.54
2018-05-27T14:46:03.372Z,44.94
2018-05-27T14:48:32.016Z,45.40
2018-05-27T14:51:07.710Z,46.90
2018-05-27T14:53:36.614Z,47.39
2018-05-27T14:56:05.963Z,47.57
2018-05-27T14:58:34.514Z,48.09
2018-05-27T15:01:09.303Z,49.38
2018-05-27T15:03:37.865Z,49.69
2018-05-27T15:06:12.788Z,50.39
2018-05-27T15:08:41.402Z,51.22
2018-05-27T15:11:10.189Z,51.54
2018-05-27T15:13:38.840Z,52.25
2018-05-27T15:16:11.279Z,52.36
2018-05-27T15:18:40.401Z,52.62
2018-05-27T15:21:14.466Z,52.85
2018-05-27T15:23:43.103Z,53.17
2018-05-27T15:26:12.215Z,53.31
2018-05-27T15:28:40.776Z,53.69
2018-05-27T15:31:10.739Z,53.96
2018-05-27T15:33:39.312Z,53.94
2018-05-27T15:36:07.921Z,53.95
2018-05-27T15:38:36.645Z,53.87
2018-05-27T15:41:06.135Z,54.05
2018-05-27T15:43:34.981Z,54.23
2018-05-27T15:46:05.638Z,54.17
2018-05-27T15:48:34.199Z,54.53
2018-05-27T15:51:10.608Z,55.46
2018-05-27T15:53:39.763Z,56.18
2018-05-27T15:56:08.390Z,55.83
2018-05-27T15:58:42.188Z,55.85
2018-05-27T16:01:10.737Z,55.87
2018-05-27T16:03:40.878Z,56.78
2018-05-27T16:06:14.848Z,56.83
2018-05-27T16:08:43.581Z,57.40
2018-05-27T16:11:13.948Z,57.49
2018-05-27T16:13:43.523Z,57.24
2018-05-27T16:16:12.282Z,57.15
2018-05-27T16:18:41.225Z,57.15
2018-05-27T16:21:10.806Z,56.87
2018-05-27T16:23:39.751Z,56.72
2018-05-27T16:26:09.268Z,59.11
2018-05-27T16:28:38.210Z,60.77
2018-05-27T16:31:06.913Z,60.96
2018-05-27T16:33:35.942Z,60.65
2018-05-27T16:36:05.862Z,60.71
2018-05-27T16:38:34.828Z,60.63
2018-05-27T16:41:04.361Z,60.71
2018-05-27T16:43:39.223Z,60.24
2018-05-27T16:46:07.912Z,59.94
2018-05-27T16:48:37.233Z,59.58
2018-05-27T16:51:06.312Z,59.17
2018-05-27T16:53:35.054Z,58.78
2018-05-27T17:09:06.192Z,58.38
2018-05-27T17:11:35.211Z,58.51
2018-05-27T17:14:09.669Z,58.81
2018-05-27T17:16:38.557Z,58.57
2018-05-27T17:19:10.701Z,58.54
2018-05-27T17:21:39.827Z,58.66
2018-05-27T17:24:13.949Z,58.60
2018-05-27T17:26:42.627Z,58.39
2018-05-27T17:29:11.543Z,58.42
2018-05-27T17:31:40.183Z,58.87
2018-05-27T17:34:09.265Z,58.75
2018-05-27T17:36:38.347Z,58.60
2018-05-27T17:39:08.470Z,58.20
2018-05-27T17:41:37.416Z,58.14
2018-05-27T17:44:07.565Z,58.34
2018-05-27T17:46:36.178Z,58.52
2018-05-27T17:49:08.319Z,58.78
2018-05-27T17:51:37.352Z,58.64
2018-05-27T17:54:07.287Z,58.57
2018-05-27T17:56:36.050Z,58.81
2018-05-27T17:59:05.970Z,58.74
2018-05-27T18:01:37.612Z,58.74
2018-05-27T18:04:06.749Z,58.71
2018-05-27T18:06:35.689Z,58.56
2018-05-27T18:09:05.397Z,58.51
2018-05-27T18:11:39.584Z,58.53
2018-05-27T18:14:09.191Z,58.56
2018-05-27T18:16:37.851Z,58.36
2018-05-27T18:19:11.683Z,58.19
2018-05-27T18:21:40.908Z,58.27
2018-05-27T18:24:12.555Z,58.21
2018-05-27T18:26:41.707Z,57.99
2018-05-27T18:29:15.476Z,58.15
2018-05-27T18:31:44.094Z,58.49
2018-05-27T18:34:12.668Z,58.50
2018-05-27T18:36:41.676Z,58.26
2018-05-27T18:39:12.018Z,58.47
2018-05-27T18:41:40.610Z,58.66
2018-05-27T18:46:35.233Z,58.92
2018-05-27T18:49:04.339Z,58.95
2018-05-27T18:51:33.388Z,59.06
2018-05-27T18:54:07.188Z,59.28
2018-05-27T18:56:35.820Z,59.37
2018-05-27T18:59:07.331Z,59.36
2018-05-27T19:01:36.520Z,59.57
2018-05-27T19:04:05.921Z,59.82
2018-05-27T19:06:41.517Z,60.02
2018-05-27T19:09:10.081Z,60.10
2018-05-27T19:11:42.559Z,60.30
2018-05-27T19:14:11.141Z,60.13
2018-05-27T19:16:40.077Z,60.16
2018-05-27T19:19:08.718Z,60.18
2018-05-27T19:21:37.332Z,60.28
2018-05-27T19:24:11.366Z,60.43
2018-05-27T19:26:40.369Z,60.45
2018-05-27T19:29:09.011Z,60.42
2018-05-27T19:31:37.577Z,60.41
2018-05-27T19:34:06.608Z,60.33
2018-05-27T19:36:35.331Z,60.32
2018-05-27T19:39:05.195Z,60.29
2018-05-27T19:41:34.171Z,60.21
2018-05-27T19:44:06.283Z,60.21
2018-05-27T19:46:34.973Z,60.25
2018-05-27T19:49:07.556Z,60.33
2018-05-27T19:51:36.400Z,60.20
2018-05-27T19:56:45.569Z,60.09
2018-05-27T19:59:15.483Z,60.21
2018-05-27T20:01:44.515Z,60.40
2018-05-27T20:04:13.173Z,60.77
2018-05-27T20:06:42.033Z,61.04
2018-05-27T20:09:12.144Z,61.12
2018-05-27T20:11:40.904Z,61.28
2018-05-27T20:14:10.008Z,61.39
2018-05-27T20:16:39.237Z,61.65
2018-05-27T20:19:07.946Z,61.79
2018-05-27T20:21:42.570Z,62.09
2018-05-27T20:24:11.199Z,62.20
2018-05-27T20:26:46.015Z,62.33
2018-05-27T20:29:14.702Z,62.31
2018-05-27T20:31:43.334Z,62.27
2018-05-27T20:34:13.163Z,62.19
2018-05-27T20:36:41.757Z,62.09
2018-05-27T20:39:11.219Z,62.13
2018-05-27T20:41:40.147Z,62.19
2018-05-27T20:44:14.796Z,62.16
2018-05-27T20:46:43.541Z,62.22
2018-05-27T20:49:12.459Z,62.07
2018-05-27T20:51:41.132Z,61.95
2018-05-27T20:54:10.415Z,61.88
2018-05-27T20:56:39.103Z,61.86
2018-05-27T20:59:07.619Z,61.82
2018-05-27T21:01:37.613Z,61.74
2018-05-27T21:04:06.976Z,61.69
2018-05-27T21:06:35.835Z,61.64
2018-05-27T21:09:06.102Z,61.63
2018-05-27T21:11:35.036Z,61.52
2018-05-27T21:14:05.096Z,61.37
2018-05-27T21:16:34.229Z,61.30
2018-05-27T21:19:06.087Z,61.20
2018-05-27T21:21:35.739Z,61.32
2018-05-27T21:24:08.464Z,61.62
2018-05-27T21:26:37.288Z,61.67
2018-05-27T21:29:06.291Z,61.99
2018-05-27T21:31:34.909Z,62.01
2018-05-27T21:34:05.650Z,62.02
2018-05-27T21:36:34.297Z,62.10
2018-05-27T21:39:04.735Z,62.10
2018-05-27T21:41:33.611Z,62.10
2018-05-27T21:44:04.296Z,62.16
2018-05-27T21:46:35.063Z,62.15
2018-05-27T21:49:05.526Z,62.10
2018-05-27T21:51:34.093Z,61.89
2018-05-27T21:54:04.126Z,61.75
2018-05-27T21:56:33.446Z,61.45
2018-05-27T21:59:02.776Z,61.12
2018-05-27T22:01:31.407Z,61.28
2018-05-27T22:04:00.615Z,61.41
2018-05-27T22:06:29.197Z,61.48
2018-05-27T22:08:58.140Z,61.23
2018-05-27T22:11:27.511Z,61.31
2018-05-27T22:14:06.952Z,61.43
2018-05-27T22:16:35.794Z,61.60
2018-05-27T22:19:05.772Z,61.64
2018-05-27T22:21:34.440Z,61.67
2018-05-27T22:24:04.874Z,61.74
2018-05-27T22:26:33.824Z,61.54
2018-05-27T22:29:07.563Z,61.33
2018-05-27T22:31:43.378Z,61.36
2018-05-27T22:34:12.261Z,61.36
2018-05-27T22:36:42.704Z,61.48
2018-05-27T22:39:13.020Z,61.74
2018-05-27T22:41:41.559Z,61.90
2018-05-27T22:44:10.304Z,61.90
2018-05-27T22:46:39.406Z,61.92
2018-05-27T22:49:08.906Z,62.00
2018-05-27T22:51:37.803Z,62.00
2018-05-27T22:54:12.981Z,62.17
2018-05-27T22:56:42.071Z,62.17
2018-05-27T22:59:11.098Z,61.86
2018-05-27T23:01:42.050Z,61.71
2018-05-27T23:04:10.930Z,61.62
2018-05-27T23:06:40.085Z,61.51
2018-05-27T23:09:08.789Z,61.44
2018-05-27T23:11:38.004Z,61.48
2018-05-27T23:14:06.920Z,61.54
2018-05-27T23:16:35.656Z,61.64
2018-05-27T23:19:04.704Z,61.60
2018-05-27T23:21:33.910Z,61.69
2018-05-27T23:24:09.329Z,61.79
2018-05-27T23:26:38.159Z,61.79
2018-05-27T23:29:06.909Z,61.81
2018-05-27T23:31:35.532Z,61.91
2018-05-27T23:34:06.108Z,61.99
2018-05-27T23:36:35.858Z,62.01
2018-05-27T23:39:05.975Z,62.15
2018-05-27T23:41:36.008Z,62.22
2018-05-27T23:44:05.379Z,62.28
2018-05-27T23:46:34.249Z,62.40
2018-05-27T23:49:04.899Z,62.45
2018-05-27T23:51:34.194Z,62.56
2018-05-27T23:54:05.651Z,62.66
2018-05-27T23:56:34.364Z,62.66
2018-05-27T23:59:03.528Z,62.70
